Time;durP1;ratioP1;P1;durP2;ratioP2;P2;SDS_P1;SDS_P2;PMS_P1;PMS_P2;Temp;Humidity;BMP_temperature;BMP_pressure;BME280_temperature;BME280_humidity;BME280_pressure;Samples;Min_cycle;Max_cycle;Signal;HPM_P1;HPM_P2
2022/02/12 00:02:45;;;;;;;5.25;3.35;;;3.60;84.70;;;;;;10040043;28;20041;-73
2022/02/12 00:07:36;;;;;;;7.18;3.63;;;4.00;85.10;;;;;;10038737;28;20032;-73
2022/02/12 00:12:27;;;;;;;7.55;3.50;;;4.10;85.40;;;;;;10038189;28;20452;-72
2022/02/12 00:17:18;;;;;;;11.35;3.53;;;4.00;85.50;;;;;;10032081;28;20041;-72
2022/02/12 00:22:08;;;;;;;6.43;3.95;;;4.00;85.50;;;;;;10031941;28;20025;-73
2022/02/12 00:26:59;;;;;;;8.35;3.30;;;3.90;85.60;;;;;;10030156;28;20033;-73
2022/02/12 00:31:50;;;;;;;6.95;3.13;;;4.00;85.70;;;;;;10031521;28;20325;-74
2022/02/12 00:36:40;;;;;;;7.32;3.05;;;4.00;85.80;;;;;;10036803;28;20041;-73
2022/02/12 00:41:32;;;;;;;5.93;3.65;;;4.00;85.90;;;;;;10041002;28;20033;-72
2022/02/12 00:46:22;;;;;;;7.20;4.15;;;4.10;86.00;;;;;;10044368;28;20109;-74
2022/02/12 00:51:14;;;;;;;8.95;3.67;;;4.00;86.50;;;;;;10034448;28;20116;-74
2022/02/12 00:56:04;;;;;;;6.65;3.95;;;4.00;87.20;;;;;;10031427;28;20037;-74
2022/02/12 01:00:55;;;;;;;9.35;4.70;;;3.80;86.90;;;;;;10031398;28;20050;-73
2022/02/12 01:05:49;;;;;;;12.55;5.82;;;3.70;87.20;;;;;;10049020;28;20018;-73
2022/02/12 01:10:40;;;;;;;12.57;5.22;;;3.60;87.50;;;;;;10038576;28;20516;-73
2022/02/12 01:15:34;;;;;;;12.93;5.82;;;3.60;87.50;;;;;;10045052;28;20029;-73
2022/02/12 01:20:25;;;;;;;11.88;5.40;;;3.60;87.60;;;;;;10040518;28;20049;-73
2022/02/12 01:25:16;;;;;;;7.80;5.10;;;3.50;87.20;;;;;;10042505;28;20069;-74
2022/02/12 01:30:08;;;;;;;12.95;5.78;;;3.50;87.60;;;;;;10038263;28;20432;-72
2022/02/12 01:34:59;;;;;;;9.85;5.20;;;3.40;87.60;;;;;;10041709;28;20034;-73
2022/02/12 01:39:50;;;;;;;8.93;4.53;;;3.40;87.90;;;;;;10042948;28;20042;-74
2022/02/12 01:44:41;;;;;;;7.78;4.60;;;3.30;87.90;;;;;;10052747;28;20030;-74
2022/02/12 01:49:32;;;;;;;9.50;4.88;;;3.20;88.20;;;;;;10055693;28;20044;-74
2022/02/12 01:54:24;;;;;;;10.57;4.43;;;3.20;88.30;;;;;;10049479;28;20496;-74
2022/02/12 01:59:15;;;;;;;9.77;4.07;;;3.30;88.20;;;;;;10056059;28;20519;-74
2022/02/12 02:04:06;;;;;;;9.30;4.07;;;3.30;89.20;;;;;;10039649;28;20022;-73
2022/02/12 02:08:57;;;;;;;7.20;4.32;;;3.30;88.90;;;;;;10039929;28;20026;-74
2022/02/12 02:13:47;;;;;;;7.97;4.10;;;3.20;89.20;;;;;;10044352;28;20484;-73
2022/02/12 02:18:38;;;;;;;7.95;4.43;;;3.20;88.90;;;;;;10043404;28;20103;-72
2022/02/12 02:23:29;;;;;;;7.60;4.00;;;3.20;88.90;;;;;;10036326;28;20535;-74
2022/02/12 02:28:20;;;;;;;10.00;4.47;;;3.30;89.10;;;;;;10045960;28;20037;-74
2022/02/12 02:33:10;;;;;;;7.85;4.32;;;3.30;89.40;;;;;;10042962;28;20080;-73
2022/02/12 02:38:12;;;;;;;6.60;3.70;;;3.20;89.40;;;;;;10047223;28;20085;-74
2022/02/12 02:43:03;;;;;;;10.43;4.50;;;3.10;89.80;;;;;;10042189;28;20025;-73
2022/02/12 02:48:01;;;;;;;8.02;4.07;;;3.10;90.10;;;;;;10033841;28;20124;-73
2022/02/12 02:58:00;;;;;;;10.88;5.13;;;3.00;89.90;;;;;;10033819;28;20056;-73
2022/02/12 03:02:51;;;;;;;9.40;3.97;;;3.00;90.00;;;;;;10041307;28;20064;-74
2022/02/12 03:07:44;;;;;;;9.27;3.25;;;3.00;90.20;;;;;;10037389;28;20058;-73
2022/02/12 03:12:35;;;;;;;8.50;4.25;;;3.00;90.20;;;;;;10029407;28;20138;-74
2022/02/12 03:17:25;;;;;;;7.53;3.85;;;3.00;90.40;;;;;;10029524;28;20083;-74
2022/02/12 03:22:17;;;;;;;7.40;3.85;;;3.00;90.10;;;;;;10028563;28;20079;-73
2022/02/12 03:27:07;;;;;;;7.05;4.05;;;2.90;90.50;;;;;;10028815;28;20037;-73
2022/02/12 03:31:58;;;;;;;8.05;4.00;;;2.80;90.20;;;;;;10029465;28;20504;-72
2022/02/12 03:36:49;;;;;;;6.15;3.47;;;2.60;90.70;;;;;;10041016;28;20044;-74
2022/02/12 03:41:39;;;;;;;8.88;4.80;;;2.50;91.10;;;;;;10039366;28;20033;-74
2022/02/12 03:46:30;;;;;;;9.20;4.57;;;2.40;90.70;;;;;;10034875;28;20136;-73
2022/02/12 03:51:21;;;;;;;8.80;4.03;;;2.20;90.90;;;;;;10031269;28;20029;-73
2022/02/12 03:56:14;;;;;;;7.13;3.88;;;2.30;91.10;;;;;;10037560;28;20484;-73
2022/02/12 04:01:04;;;;;;;7.10;4.20;;;2.10;91.40;;;;;;10040227;28;20136;-75
2022/02/12 04:05:55;;;;;;;5.45;4.35;;;2.00;91.90;;;;;;10014301;28;20509;-74
2022/02/12 04:10:48;;;;;;;7.53;3.67;;;1.90;91.50;;;;;;10025209;28;20148;-74
2022/02/12 04:15:39;;;;;;;7.53;3.85;;;1.90;91.60;;;;;;10032543;28;20519;-73
2022/02/12 04:20:29;;;;;;;7.68;3.70;;;2.00;91.80;;;;;;10033850;28;20033;-73
2022/02/12 04:25:23;;;;;;;7.05;3.88;;;2.00;91.40;;;;;;10028985;28;20462;-73
2022/02/12 04:30:15;;;;;;;5.38;2.88;;;2.00;91.80;;;;;;10028165;28;20070;-73
2022/02/12 04:35:08;;;;;;;5.40;3.22;;;2.00;91.80;;;;;;10039718;28;20031;-74
2022/02/12 04:39:58;;;;;;;7.57;3.05;;;1.90;91.80;;;;;;10031940;28;20499;-73
2022/02/12 04:44:51;;;;;;;9.65;2.75;;;1.90;91.70;;;;;;10038676;28;20024;-74
2022/02/12 04:49:42;;;;;;;6.93;3.13;;;1.70;92.10;;;;;;10031443;28;20033;-73
2022/02/12 04:54:34;;;;;;;7.28;2.88;;;1.70;92.10;;;;;;10030574;28;20389;-73
2022/02/12 04:59:24;;;;;;;4.53;2.75;;;1.70;92.10;;;;;;10039414;28;20056;-73
2022/02/12 05:04:15;;;;;;;6.78;2.60;;;1.70;92.20;;;;;;10055843;28;20411;-74
2022/02/12 05:09:06;;;;;;;5.28;2.78;;;1.80;92.20;;;;;;10041417;28;20112;-73
2022/02/12 05:13:57;;;;;;;4.93;1.85;;;1.70;92.30;;;;;;10038139;28;20022;-73
2022/02/12 05:18:47;;;;;;;6.45;2.60;;;1.60;92.30;;;;;;10036797;28;20033;-74
2022/02/12 05:23:38;;;;;;;4.25;2.45;;;1.60;92.10;;;;;;10035993;28;20068;-74
2022/02/12 05:28:29;;;;;;;3.97;2.33;;;1.60;92.00;;;;;;10032823;28;20030;-73
2022/02/12 05:33:20;;;;;;;2.90;2.03;;;1.50;92.40;;;;;;10029334;28;20033;-74
2022/02/12 05:38:10;;;;;;;6.35;2.42;;;1.50;92.30;;;;;;10029428;28;20041;-74
2022/02/12 05:43:02;;;;;;;5.90;1.80;;;1.40;92.40;;;;;;10015531;28;20037;-74
2022/02/12 05:47:53;;;;;;;4.95;2.15;;;1.40;92.80;;;;;;10033463;28;20095;-75
2022/02/12 05:52:43;;;;;;;6.88;2.20;;;1.30;92.70;;;;;;10043266;28;20034;-74
2022/02/12 05:57:34;;;;;;;7.70;2.22;;;1.40;92.80;;;;;;10034545;28;20037;-73
2022/02/12 06:02:24;;;;;;;2.95;2.25;;;1.30;92.80;;;;;;10047992;28;20389;-73
2022/02/12 06:07:15;;;;;;;5.18;2.10;;;1.20;92.70;;;;;;10039515;28;20029;-74
2022/02/12 06:12:06;;;;;;;5.07;2.03;;;1.20;92.80;;;;;;10037573;28;20036;-74
2022/02/12 06:16:59;;;;;;;4.88;1.67;;;1.20;92.80;;;;;;10043090;28;20116;-74
2022/02/12 06:21:50;;;;;;;3.45;2.05;;;1.20;93.00;;;;;;10040150;28;20038;-74
2022/02/12 06:26:46;;;;;;;6.50;1.92;;;1.10;92.90;;;;;;10038220;28;20400;-73
2022/02/12 06:31:36;;;;;;;4.60;2.57;;;1.20;93.10;;;;;;10040160;28;20037;-74
2022/02/12 06:36:27;;;;;;;5.38;2.28;;;1.10;93.20;;;;;;10032794;28;20405;-74
2022/02/12 06:41:18;;;;;;;3.58;2.10;;;1.50;92.90;;;;;;10031112;28;20037;-74
2022/02/12 06:46:09;;;;;;;5.78;2.03;;;1.10;93.10;;;;;;10045500;28;20040;-75
2022/02/12 06:51:00;;;;;;;4.47;2.05;;;1.10;93.10;;;;;;10034480;28;20026;-75
2022/02/12 06:55:51;;;;;;;6.88;1.83;;;1.10;93.20;;;;;;10031518;28;20419;-74
2022/02/12 07:00:42;;;;;;;4.22;2.00;;;1.10;93.50;;;;;;10043054;28;20064;-74
2022/02/12 07:05:34;;;;;;;5.95;2.35;;;1.10;93.20;;;;;;9992676;28;20030;-74
2022/02/12 07:10:24;;;;;;;6.13;2.40;;;1.10;93.40;;;;;;9994440;28;20081;-74
2022/02/12 07:15:15;;;;;;;7.28;2.75;;;1.10;93.20;;;;;;9990367;28;20107;-73
2022/02/12 07:20:09;;;;;;;4.82;2.30;;;1.20;93.40;;;;;;9993257;28;20113;-73
2022/02/12 07:25:00;;;;;;;6.50;2.33;;;1.20;93.00;;;;;;9996991;28;20449;-74
2022/02/12 07:29:50;;;;;;;3.08;2.03;;;1.20;92.90;;;;;;10002098;28;20093;-75
2022/02/12 07:34:41;;;;;;;6.07;2.38;;;1.30;92.70;;;;;;9975297;28;20035;-75
2022/02/12 07:39:32;;;;;;;7.93;2.85;;;1.30;92.90;;;;;;10000372;28;20444;-75
2022/02/12 07:44:23;;;;;;;6.10;3.20;;;1.30;92.60;;;;;;10002288;28;20033;-73
2022/02/12 07:49:13;;;;;;;7.63;2.53;;;1.40;92.70;;;;;;9990959;28;20306;-74
2022/02/12 07:54:05;;;;;;;6.20;3.17;;;1.40;92.60;;;;;;9997520;28;20088;-73
2022/02/12 07:58:56;;;;;;;6.13;3.08;;;1.50;92.50;;;;;;9989967;28;20413;-73
2022/02/12 08:03:46;;;;;;;7.78;3.17;;;1.40;92.40;;;;;;10030144;28;20045;-73
2022/02/12 08:08:37;;;;;;;5.18;3.42;;;1.40;92.50;;;;;;10045126;28;20030;-73
2022/02/12 08:13:28;;;;;;;5.60;2.75;;;1.50;92.40;;;;;;10031004;28;20022;-74
2022/02/12 08:18:18;;;;;;;9.30;3.42;;;1.60;92.40;;;;;;10037346;28;20099;-73
2022/02/12 08:23:09;;;;;;;10.52;3.92;;;1.70;92.30;;;;;;10039548;28;20034;-73
2022/02/12 08:28:00;;;;;;;6.65;3.72;;;1.80;92.30;;;;;;10057421;28;20017;-74
2022/02/12 08:32:51;;;;;;;8.65;3.65;;;1.90;92.20;;;;;;10051607;28;20073;-73
2022/02/12 08:37:45;;;;;;;5.75;3.20;;;1.90;92.20;;;;;;10036100;28;20041;-74
2022/02/12 08:42:37;;;;;;;8.00;3.13;;;2.10;92.30;;;;;;10045617;28;20532;-73
2022/02/12 08:47:30;;;;;;;6.47;3.25;;;2.20;92.20;;;;;;10039640;28;20037;-73
2022/02/12 08:52:21;;;;;;;10.70;3.75;;;2.30;92.10;;;;;;10035381;28;20026;-73
2022/02/12 08:57:12;;;;;;;5.03;3.38;;;2.40;92.20;;;;;;10034788;28;20045;-73
2022/02/12 09:02:03;;;;;;;6.40;3.25;;;2.50;92.20;;;;;;10032864;28;20519;-74
2022/02/12 09:06:53;;;;;;;10.70;4.00;;;2.60;92.20;;;;;;10026453;28;20034;-73
2022/02/12 09:11:45;;;;;;;7.40;4.38;;;2.70;92.20;;;;;;10040148;28;20021;-73
2022/02/12 09:16:37;;;;;;;7.78;3.53;;;3.00;92.00;;;;;;10026118;28;20116;-74
2022/02/12 09:21:34;;;;;;;7.43;3.67;;;3.10;91.90;;;;;;10035231;28;20045;-76
2022/02/12 09:26:29;;;;;;;9.38;3.97;;;3.40;91.80;;;;;;10049441;28;20132;-75
2022/02/12 09:31:20;;;;;;;6.03;3.40;;;3.40;91.80;;;;;;10052855;28;20034;-75
2022/02/12 09:36:11;;;;;;;9.70;4.40;;;3.50;91.70;;;;;;10043748;28;20048;-75
2022/02/12 09:41:02;;;;;;;16.17;4.80;;;3.60;91.80;;;;;;10037282;28;20049;-74
2022/02/12 09:46:30;;;;;;;6.07;3.83;;;3.70;91.90;;;;;;10034120;28;20030;-75
2022/02/12 09:51:24;;;;;;;11.18;4.38;;;3.70;91.90;;;;;;10021702;28;20037;-74
2022/02/12 09:56:16;;;;;;;7.68;4.07;;;3.90;91.80;;;;;;10037708;28;20022;-73
2022/02/12 10:01:07;;;;;;;8.43;4.13;;;4.00;91.60;;;;;;10044828;28;20393;-73
2022/02/12 10:05:58;;;;;;;8.98;4.57;;;4.10;91.70;;;;;;10040300;28;20533;-73
2022/02/12 10:10:53;;;;;;;8.45;4.65;;;4.20;91.60;;;;;;10042587;28;20099;-73
2022/02/12 10:15:46;;;;;;;9.05;4.05;;;4.40;91.50;;;;;;10040218;28;20490;-71
2022/02/12 10:20:39;;;;;;;6.20;3.83;;;4.40;91.50;;;;;;10036420;28;20038;-71
2022/02/12 10:25:30;;;;;;;6.88;3.75;;;4.50;91.30;;;;;;10033438;28;20022;-74
2022/02/12 10:30:25;;;;;;;7.53;3.85;;;4.70;91.20;;;;;;10034176;28;20102;-73
2022/02/12 10:35:17;;;;;;;7.90;4.50;;;4.90;91.20;;;;;;10040561;28;20056;-74
2022/02/12 10:40:08;;;;;;;7.65;4.55;;;5.00;90.90;;;;;;10026826;28;20030;-72
2022/02/12 10:44:59;;;;;;;13.18;5.18;;;5.10;91.00;;;;;;10036420;28;20090;-72
2022/02/12 10:49:50;;;;;;;14.15;6.25;;;5.20;90.80;;;;;;10044709;28;20079;-73
2022/02/12 10:54:49;;;;;;;20.00;7.55;;;5.30;90.80;;;;;;10025727;28;20038;-71
2022/02/12 10:59:44;;;;;;;7.28;4.30;;;5.60;90.60;;;;;;10047239;23;20057;-64
2022/02/12 11:04:42;;;;;;;11.17;4.83;;;5.70;90.50;;;;;;9992901;28;20041;-64
2022/02/12 11:09:32;;;;;;;8.63;5.07;;;5.90;90.40;;;;;;10014250;28;20034;-62
2022/02/12 11:14:23;;;;;;;7.55;3.58;;;6.00;90.30;;;;;;10013641;28;20026;-64
2022/02/12 11:19:15;;;;;;;9.68;3.97;;;6.00;90.20;;;;;;10013003;28;20096;-64
2022/02/12 11:24:14;;;;;;;6.25;3.70;;;6.10;90.00;;;;;;10018338;28;20034;-65
2022/02/12 11:29:33;;;;;;;7.03;3.70;;;6.10;89.60;;;;;;10013789;28;20032;-64
2022/02/12 11:34:24;;;;;;;6.53;4.13;;;6.10;89.50;;;;;;10011689;28;20057;-63
2022/02/12 11:39:20;;;;;;;5.68;2.90;;;6.10;89.10;;;;;;10013251;28;20493;-63
2022/02/12 11:44:47;;;;;;;6.72;3.42;;;6.20;89.30;;;;;;10013712;28;20057;-63
2022/02/12 11:49:39;;;;;;;;;;;6.20;88.80;;;;;;10012124;28;20470;-62
2022/02/12 11:54:44;;;;;;;5.00;3.22;;;6.30;88.20;;;;;;10013108;28;20391;-64
2022/02/12 11:59:35;;;;;;;4.63;3.08;;;6.40;88.50;;;;;;9994171;28;20127;-63
2022/02/12 12:04:30;;;;;;;7.30;4.15;;;6.50;88.00;;;;;;10012031;28;20337;-62
2022/02/12 12:09:21;;;;;;;7.23;3.20;;;6.70;87.40;;;;;;10010744;28;20152;-63
2022/02/12 12:14:24;;;;;;;4.20;2.15;;;6.80;87.00;;;;;;9995399;28;20049;-65
2022/02/12 12:19:16;;;;;;;5.28;2.95;;;7.00;86.60;;;;;;10012479;28;20833;-63
2022/02/12 12:24:11;;;;;;;4.18;2.50;;;7.20;86.00;;;;;;10011151;28;20148;-63
2022/02/12 12:34:22;;;;;;;8.13;2.80;;;7.50;85.20;;;;;;10012108;28;20056;-67
2022/02/12 12:39:13;;;;;;;6.50;2.97;;;7.60;84.90;;;;;;10013299;28;20408;-63
2022/02/12 12:44:06;;;;;;;8.90;3.03;;;7.60;84.30;;;;;;9996658;28;20025;-64
2022/02/12 12:48:57;;;;;;;5.10;2.75;;;7.80;83.70;;;;;;10012415;28;20084;-62
2022/02/12 12:53:48;;;;;;;5.40;2.75;;;7.80;84.00;;;;;;10011640;28;20079;-63
2022/02/12 12:58:38;;;;;;;6.82;3.42;;;8.10;83.50;;;;;;10010613;28;20045;-63
2022/02/12 13:03:32;;;;;;;5.45;3.13;;;8.40;83.10;;;;;;10009609;28;20050;-64
2022/02/12 13:08:22;;;;;;;6.93;3.65;;;8.60;82.80;;;;;;10010943;28;20424;-62
2022/02/12 13:13:16;;;;;;;7.60;3.25;;;8.80;82.80;;;;;;10011370;28;20030;-64
2022/02/12 13:18:07;;;;;;;5.30;3.15;;;9.20;82.20;;;;;;9996110;28;20053;-64
2022/02/12 13:23:07;;;;;;;5.38;3.65;;;9.30;82.10;;;;;;9997331;28;20467;-65
2022/02/12 13:27:58;;;;;;;4.75;2.63;;;9.50;81.90;;;;;;10010328;28;20069;-63
2022/02/12 13:32:51;;;;;;;5.32;3.47;;;9.60;81.10;;;;;;9991682;28;20500;-64
2022/02/12 13:37:56;;;;;;;5.60;3.30;;;9.60;80.70;;;;;;9992445;28;20157;-64
2022/02/12 13:42:47;;;;;;;5.95;3.30;;;9.60;80.30;;;;;;10010603;28;20603;-64
2022/02/12 13:47:38;;;;;;;4.22;3.13;;;9.60;80.10;;;;;;10011124;28;20022;-63
2022/02/12 13:52:28;;;;;;;7.45;3.47;;;9.30;79.90;;;;;;10008717;28;20041;-63
2022/02/12 13:57:20;;;;;;;5.05;2.88;;;9.40;79.80;;;;;;9994818;28;20033;-62
2022/02/12 14:02:11;;;;;;;4.13;2.65;;;9.60;79.20;;;;;;10009455;28;20052;-64
2022/02/12 14:07:02;;;;;;;7.95;2.85;;;9.60;78.80;;;;;;10010531;28;20037;-63
2022/02/12 14:11:52;;;;;;;5.18;3.00;;;9.50;78.50;;;;;;10014369;28;20101;-63
2022/02/12 14:16:45;;;;;;;4.90;3.08;;;9.60;78.00;;;;;;10003209;28;20033;-63
2022/02/12 14:21:38;;;;;;;6.82;3.33;;;9.60;77.60;;;;;;10023118;28;20099;-64
2022/02/12 14:26:30;;;;;;;3.97;2.47;;;9.70;77.40;;;;;;9999768;28;20026;-64
2022/02/12 14:31:20;;;;;;;6.45;2.67;;;9.60;77.10;;;;;;10016864;28;20108;-62
2022/02/12 14:36:12;;;;;;;6.18;3.53;;;9.50;77.10;;;;;;10016057;28;20599;-64
2022/02/12 14:41:03;;;;;;;5.13;2.85;;;9.50;76.80;;;;;;10016091;28;20045;-64
2022/02/12 14:45:54;;;;;;;5.35;2.70;;;9.40;76.70;;;;;;10015999;28;20041;-64
2022/02/12 14:50:44;;;;;;;4.60;2.72;;;9.40;76.50;;;;;;10016380;28;20030;-63
2022/02/12 14:55:35;;;;;;;5.75;3.13;;;9.20;76.40;;;;;;10014848;28;20025;-64
2022/02/12 15:00:26;;;;;;;5.82;3.40;;;9.10;76.10;;;;;;10014931;28;20327;-64
2022/02/12 15:05:17;;;;;;;5.03;2.85;;;9.10;76.00;;;;;;10011068;28;20044;-64
2022/02/12 15:10:09;;;;;;;5.95;2.80;;;9.00;76.00;;;;;;9994756;28;20116;-64
2022/02/12 15:15:00;;;;;;;6.00;2.83;;;8.80;75.80;;;;;;10013275;28;20052;-64
2022/02/12 15:19:54;;;;;;;5.90;3.13;;;8.70;75.60;;;;;;10020038;28;20081;-64
2022/02/12 15:24:46;;;;;;;6.40;3.10;;;8.60;75.60;;;;;;10013242;28;20214;-63
2022/02/12 15:29:39;;;;;;;4.53;2.75;;;8.50;75.40;;;;;;10012731;28;20026;-63
2022/02/12 15:34:30;;;;;;;5.78;3.10;;;8.40;75.20;;;;;;10011882;28;20453;-63
2022/02/12 15:39:20;;;;;;;7.30;3.83;;;8.40;75.30;;;;;;10012982;28;20147;-63
2022/02/12 15:44:11;;;;;;;3.60;2.28;;;8.40;75.00;;;;;;10012883;28;20048;-64
2022/02/12 15:49:02;;;;;;;4.85;2.33;;;8.30;75.00;;;;;;10014220;28;20112;-64
2022/02/12 15:53:53;;;;;;;5.18;2.42;;;8.00;75.20;;;;;;10013527;28;20060;-64
2022/02/12 15:58:45;;;;;;;3.33;1.90;;;7.90;75.00;;;;;;10013303;28;20482;-64
2022/02/12 16:03:36;;;;;;;4.38;2.20;;;7.80;74.80;;;;;;10013049;28;20061;-64
2022/02/12 16:08:27;;;;;;;4.07;2.53;;;7.80;74.70;;;;;;10014577;28;20042;-63
2022/02/12 16:13:17;;;;;;;5.57;2.58;;;7.70;74.70;;;;;;10011586;28;20022;-64
2022/02/12 16:18:08;;;;;;;5.50;2.50;;;7.50;74.60;;;;;;10016367;28;20548;-63
2022/02/12 16:22:59;;;;;;;7.10;3.20;;;7.40;74.60;;;;;;10012377;28;20397;-63
2022/02/12 16:27:50;;;;;;;6.95;2.25;;;7.20;74.60;;;;;;10011544;28;20041;-64
2022/02/12 16:32:40;;;;;;;6.85;2.78;;;7.10;74.50;;;;;;10011716;28;20045;-63
2022/02/12 16:37:31;;;;;;;3.83;2.42;;;7.00;74.50;;;;;;10011491;28;20519;-64
2022/02/12 16:42:22;;;;;;;7.32;3.90;;;6.90;74.60;;;;;;10010997;28;20111;-63
2022/02/12 16:47:12;;;;;;;5.60;2.55;;;6.80;74.50;;;;;;10012796;28;20449;-63
2022/02/12 16:52:03;;;;;;;4.00;2.28;;;6.70;74.40;;;;;;10010895;28;20101;-63
2022/02/12 16:56:54;;;;;;;6.90;2.53;;;6.60;74.40;;;;;;10011422;28;20030;-64
2022/02/12 17:01:45;;;;;;;5.13;2.90;;;6.60;74.50;;;;;;10021269;28;20053;-63
2022/02/12 17:06:36;;;;;;;5.40;3.33;;;6.50;74.40;;;;;;10008869;28;20030;-64
2022/02/12 17:11:28;;;;;;;5.78;3.55;;;6.40;74.50;;;;;;10022867;28;20076;-63
2022/02/12 17:16:18;;;;;;;8.25;3.25;;;6.40;74.70;;;;;;10029051;28;20061;-63
2022/02/12 17:21:09;;;;;;;6.07;3.00;;;6.30;74.70;;;;;;10015709;28;20048;-63
2022/02/12 17:26:00;;;;;;;5.85;2.65;;;6.30;74.60;;;;;;10020876;28;20112;-63
2022/02/12 17:30:51;;;;;;;6.60;3.97;;;6.20;74.60;;;;;;10020521;28;20400;-63
2022/02/12 17:35:41;;;;;;;8.25;4.22;;;6.10;74.70;;;;;;9999904;28;20317;-63
2022/02/12 17:40:32;;;;;;;6.93;4.30;;;6.10;74.80;;;;;;10015744;28;20041;-62
2022/02/12 17:45:23;;;;;;;7.78;3.65;;;6.00;74.90;;;;;;10015959;28;20113;-62
2022/02/12 17:50:14;;;;;;;6.68;3.83;;;6.00;74.90;;;;;;10025684;28;20429;-63
2022/02/12 17:55:06;;;;;;;8.50;4.18;;;5.90;74.90;;;;;;10023067;28;20025;-63
2022/02/12 17:59:57;;;;;;;8.95;3.90;;;5.90;75.10;;;;;;10002120;28;20053;-64
2022/02/12 18:04:48;;;;;;;9.48;3.92;;;5.80;75.10;;;;;;10019330;28;20354;-62
2022/02/12 18:09:39;;;;;;;9.30;4.28;;;5.80;75.10;;;;;;10026120;28;20594;-63
2022/02/12 18:14:29;;;;;;;9.27;3.22;;;5.80;75.30;;;;;;10009869;28;20026;-64
2022/02/12 18:19:20;;;;;;;7.30;4.15;;;5.70;75.20;;;;;;10027043;28;20042;-62
2022/02/12 18:24:11;;;;;;;8.57;3.78;;;5.70;75.30;;;;;;10034523;28;20492;-63
2022/02/12 18:29:02;;;;;;;5.85;3.92;;;5.60;75.40;;;;;;10021444;28;20029;-64
2022/02/12 18:33:53;;;;;;;7.38;3.83;;;5.60;75.50;;;;;;10022029;28;20029;-63
2022/02/12 18:38:44;;;;;;;7.50;4.00;;;5.60;75.50;;;;;;10026593;28;20090;-63
2022/02/12 18:43:35;;;;;;;9.27;4.82;;;5.60;75.60;;;;;;10026320;28;20408;-63
2022/02/12 18:48:26;;;;;;;6.95;4.13;;;5.50;75.70;;;;;;10022780;28;20721;-64
2022/02/12 18:53:16;;;;;;;9.68;4.03;;;5.50;75.80;;;;;;10025062;28;20472;-64
2022/02/12 18:58:07;;;;;;;13.63;6.38;;;5.50;75.90;;;;;;10017626;28;20420;-63
2022/02/12 19:02:58;;;;;;;8.18;4.68;;;5.50;76.00;;;;;;10014392;28;20057;-65
2022/02/12 19:07:49;;;;;;;7.88;4.20;;;5.40;76.20;;;;;;10000326;28;20473;-63
2022/02/12 19:12:40;;;;;;;8.82;4.22;;;5.40;76.50;;;;;;10008940;28;20026;-65
2022/02/12 19:17:30;;;;;;;10.23;5.03;;;5.40;76.60;;;;;;9998957;28;20026;-63
2022/02/12 19:22:21;;;;;;;10.43;4.93;;;5.40;76.70;;;;;;10013155;28;20513;-64
2022/02/12 19:27:12;;;;;;;10.10;4.65;;;5.40;76.90;;;;;;10013078;28;20022;-64
2022/02/12 19:32:04;;;;;;;11.60;4.95;;;5.40;77.10;;;;;;10003051;28;20064;-63
2022/02/12 19:36:54;;;;;;;13.20;6.35;;;5.40;77.30;;;;;;10014166;28;20125;-63
2022/02/12 19:41:45;;;;;;;13.65;5.93;;;5.30;77.50;;;;;;10014694;28;20145;-65
2022/02/12 19:46:36;;;;;;;9.60;5.47;;;5.30;77.60;;;;;;10010463;28;20030;-63
2022/02/12 19:51:27;;;;;;;10.30;6.07;;;5.30;77.70;;;;;;9999453;28;20091;-64
2022/02/12 19:56:17;;;;;;;13.48;5.40;;;5.30;78.60;;;;;;10012668;28;20026;-63
2022/02/12 20:01:08;;;;;;;9.50;5.45;;;5.30;78.10;;;;;;9998802;28;20054;-63
2022/02/12 20:05:59;;;;;;;11.73;6.20;;;5.20;78.20;;;;;;10027445;28;20044;-63
2022/02/12 20:10:51;;;;;;;12.50;6.32;;;5.10;78.40;;;;;;10015290;28;20033;-64
2022/02/12 20:15:42;;;;;;;11.82;6.43;;;5.10;78.50;;;;;;10016718;28;20416;-63
2022/02/12 20:20:33;;;;;;;9.65;5.45;;;5.00;78.80;;;;;;10013724;28;20053;-65
2022/02/12 20:25:24;;;;;;;8.75;5.68;;;5.00;78.90;;;;;;10007115;28;20034;-63
2022/02/12 20:30:20;;;;;;;13.68;5.65;;;5.00;79.20;;;;;;10021058;28;20088;-63
2022/02/12 20:35:11;;;;;;;10.23;5.65;;;4.90;79.40;;;;;;10016173;28;20555;-63
2022/02/12 20:40:04;;;;;;;10.18;5.28;;;4.80;79.40;;;;;;9977691;28;20041;-63
2022/02/12 20:44:55;;;;;;;10.10;5.47;;;4.80;79.70;;;;;;10018687;28;20038;-63
2022/02/12 20:49:45;;;;;;;14.00;5.68;;;4.70;79.70;;;;;;10015356;28;20037;-63
2022/02/12 20:54:38;;;;;;;15.10;7.25;;;4.70;80.00;;;;;;10014057;28;20327;-63
2022/02/12 20:59:31;;;;;;;8.82;5.57;;;4.60;80.00;;;;;;10009097;28;20155;-63
2022/02/12 21:04:22;;;;;;;8.05;5.07;;;4.60;80.10;;;;;;10009483;28;20026;-64
2022/02/12 21:09:14;;;;;;;9.73;5.90;;;4.50;80.30;;;;;;9999536;28;20037;-64
2022/02/12 21:14:04;;;;;;;14.07;5.63;;;4.50;80.50;;;;;;10010019;28;20049;-63
2022/02/12 21:18:55;;;;;;;9.77;5.97;;;4.40;80.60;;;;;;10011738;28;20409;-63
2022/02/12 21:23:46;;;;;;;9.95;5.95;;;4.30;80.80;;;;;;10019801;28;20502;-64
2022/02/12 21:28:37;;;;;;;13.88;6.65;;;4.20;81.10;;;;;;10006228;28;20095;-63
2022/02/12 21:33:27;;;;;;;11.02;5.65;;;4.20;81.40;;;;;;10019347;28;20029;-63
2022/02/12 21:38:18;;;;;;;11.88;5.88;;;4.20;81.50;;;;;;10018222;28;20041;-63
2022/02/12 21:43:09;;;;;;;15.35;6.57;;;4.20;81.60;;;;;;10004842;28;20041;-64
2022/02/12 21:48:00;;;;;;;10.07;5.47;;;4.00;81.70;;;;;;10018740;28;20042;-63
2022/02/12 21:52:50;;;;;;;14.05;5.85;;;3.90;81.90;;;;;;10018091;28;20034;-64
2022/02/12 21:57:41;;;;;;;11.98;6.63;;;4.00;82.00;;;;;;10018342;28;20026;-63
2022/02/12 22:02:32;;;;;;;11.93;6.68;;;3.90;82.00;;;;;;10021586;28;20054;-63
2022/02/12 22:07:23;;;;;;;13.98;5.90;;;3.80;82.30;;;;;;10026399;28;20025;-63
2022/02/12 22:12:14;;;;;;;12.80;5.72;;;3.80;82.40;;;;;;10025834;28;20573;-63
2022/02/12 22:17:05;;;;;;;13.57;6.40;;;3.80;82.50;;;;;;10021131;28;20026;-64
2022/02/12 22:21:55;;;;;;;14.30;6.93;;;3.80;82.70;;;;;;10017678;28;20041;-63
2022/02/12 22:26:46;;;;;;;11.05;6.25;;;3.80;82.80;;;;;;10023063;28;20121;-65
2022/02/12 22:31:37;;;;;;;12.57;6.80;;;3.70;82.80;;;;;;10001698;28;20032;-64
2022/02/12 22:36:27;;;;;;;12.73;5.05;;;3.60;83.00;;;;;;10021323;28;20076;-64
2022/02/12 22:41:18;;;;;;;11.55;5.15;;;3.70;83.00;;;;;;10018362;28;20488;-62
2022/02/12 22:46:09;;;;;;;13.25;5.72;;;3.70;83.30;;;;;;10010934;28;20084;-63
2022/02/12 22:51:02;;;;;;;12.77;6.05;;;3.60;83.50;;;;;;10024865;28;20484;-63
2022/02/12 22:55:52;;;;;;;13.27;5.28;;;3.50;83.80;;;;;;10014082;28;20030;-63
2022/02/12 23:00:46;;;;;;;11.35;6.35;;;3.40;83.90;;;;;;10028026;28;20129;-64
2022/02/12 23:05:37;;;;;;;10.27;5.75;;;3.40;84.00;;;;;;10016616;28;20026;-64
2022/02/12 23:10:30;;;;;;;9.35;5.18;;;3.30;84.10;;;;;;9999528;28;20404;-63
2022/02/12 23:15:20;;;;;;;10.40;5.20;;;3.40;84.20;;;;;;10013517;28;20030;-62
2022/02/12 23:20:12;;;;;;;12.13;5.60;;;3.30;84.30;;;;;;10011981;28;20038;-64
2022/02/12 23:25:17;;;;;;;10.80;5.85;;;3.30;84.60;;;;;;10013764;28;20022;-64
2022/02/12 23:30:08;;;;;;;9.77;5.13;;;3.30;84.40;;;;;;10015652;28;20038;-63
2022/02/12 23:34:59;;;;;;;8.57;5.20;;;3.20;84.60;;;;;;10014477;28;20018;-62
2022/02/12 23:39:50;;;;;;;6.93;4.15;;;3.20;84.60;;;;;;9979486;28;20068;-64
2022/02/12 23:44:40;;;;;;;9.40;5.32;;;3.30;84.70;;;;;;10012849;28;20712;-64
2022/02/12 23:49:31;;;;;;;9.18;4.32;;;3.20;84.70;;;;;;10013840;28;20041;-62
2022/02/12 23:54:22;;;;;;;9.25;4.38;;;3.20;85.00;;;;;;10016447;28;20030;-63
2022/02/12 23:59:13;;;;;;;8.52;5.13;;;3.20;85.10;;;;;;10013876;28;20567;-63
